Terminal Aerodrome Forecast
Issued by NWS

Home | Current Version | Previous Version | Text Only | Print | Product List | Glossary On
Versions: 1 2 3 4 5 6 7 8 9 10 11 12 13 14 15 16 17 18 19
000
FTAK31 PAJN 061700
TAFAYA
TAF
PAYA 061721Z 0618/0718 VRB03KT P6SM VCSH SCT030 BKN050
      TEMPO 0618/0621 5SM BR SCT003 BKN025
     FM062100 10005KT P6SM -RA SCT010 BKN025 OVC030
     FM070500 16007KT 5SM -RA BR SCT006 BKN015 OVC025
      AMD LTD TO CLD VIS AND WIND 0701/0710=

USA.gov is the U.S. government's official web portal to all federal, state and local government web resources and services.